Time;durP1;ratioP1;P1;durP2;ratioP2;P2;SDS_P1;SDS_P2;PMS_P1;PMS_P2;Temp;Humidity;BMP_temperature;BMP_pressure;BME280_temperature;BME280_humidity;BME280_pressure;Samples;Min_cycle;Max_cycle;Signal;HPM_P1;HPM_P2
2023/03/11 00:00:15;;;;;;;4.07;3.77;;;;;;;-145.52;100.00;65322.94;5106074;28;20517;-61
2023/03/11 00:03:03;;;;;;;5.83;4.40;;;;;;;-145.52;100.00;65322.94;5115601;28;20477;-62
2023/03/11 00:05:51;;;;;;;6.00;4.70;;;;;;;-145.52;100.00;65322.94;5086273;28;20496;-61
2023/03/11 00:08:43;;;;;;;4.77;4.17;;;;;;;-145.52;100.00;65322.94;5085747;28;20487;-61
2023/03/11 00:11:30;;;;;;;5.17;3.80;;;;;;;-145.52;100.00;65322.94;5120364;28;20493;-61
2023/03/11 00:14:12;;;;;;;5.13;3.90;;;;;;;-145.52;100.00;65322.94;5099438;28;20430;-61
2023/03/11 00:17:02;;;;;;;5.70;4.87;;;;;;;-145.52;100.00;65322.94;5114223;28;20496;-61
2023/03/11 00:19:54;;;;;;;6.70;4.70;;;;;;;-145.52;100.00;65322.94;5101707;28;20448;-61
2023/03/11 00:22:42;;;;;;;4.73;3.80;;;;;;;-145.52;100.00;65322.94;5110740;28;20506;-61
2023/03/11 00:25:35;;;;;;;4.67;4.17;;;;;;;-145.52;100.00;65322.94;5104760;28;20433;-62
2023/03/11 00:28:21;;;;;;;4.53;4.13;;;;;;;-145.52;100.00;65322.94;5113289;28;20474;-62
2023/03/11 00:31:04;;;;;;;5.17;3.60;;;;;;;-145.52;100.00;65322.94;5109721;28;20466;-63
2023/03/11 00:33:50;;;;;;;5.97;3.63;;;;;;;-145.52;100.00;65322.94;5107484;28;20449;-62
2023/03/11 00:36:36;;;;;;;5.60;4.03;;;;;;;-145.52;100.00;65322.94;5118130;28;20485;-62
2023/03/11 00:39:20;;;;;;;4.37;3.97;;;;;;;-145.52;100.00;65322.94;5121593;28;20729;-62
2023/03/11 00:42:11;;;;;;;6.20;3.53;;;;;;;-145.52;100.00;65322.94;5120309;28;20553;-62
2023/03/11 00:44:56;;;;;;;4.93;3.50;;;;;;;-145.52;100.00;65322.94;5115134;28;20503;-61
2023/03/11 00:47:42;;;;;;;5.60;4.13;;;;;;;-145.52;100.00;65322.94;5096834;28;20493;-61
2023/03/11 00:50:26;;;;;;;5.30;4.00;;;;;;;-145.52;100.00;65322.94;5108359;28;20458;-61
2023/03/11 00:53:03;;;;;;;7.00;4.40;;;;;;;-145.52;100.00;65322.94;5099693;28;20484;-62
2023/03/11 00:55:51;;;;;;;3.80;3.43;;;;;;;-145.52;100.00;65322.94;5117951;28;20491;-61
2023/03/11 00:58:40;;;;;;;3.90;3.60;;;;;;;-145.52;100.00;65322.94;5123061;28;20435;-61
2023/03/11 01:01:16;;;;;;;6.70;4.50;;;;;;;-145.52;100.00;65322.94;5092934;28;20472;-61
2023/03/11 01:04:06;;;;;;;4.70;4.30;;;;;;;-145.52;100.00;65322.94;5092218;28;20471;-61
2023/03/11 01:06:49;;;;;;;4.90;3.90;;;;;;;-145.52;100.00;65322.94;5117744;28;20536;-61
2023/03/11 01:09:29;;;;;;;5.23;4.07;;;;;;;-145.52;100.00;65322.94;5124246;28;20463;-62
2023/03/11 01:12:27;;;;;;;5.73;4.10;;;;;;;-145.52;100.00;65322.94;5118499;28;20853;-61
2023/03/11 01:15:20;;;;;;;5.40;4.20;;;;;;;-145.52;100.00;65322.94;5110729;28;20472;-61
2023/03/11 01:18:16;;;;;;;5.93;4.90;;;;;;;-145.52;100.00;65322.94;5112463;28;20968;-61
2023/03/11 01:21:11;;;;;;;7.73;4.97;;;;;;;-145.52;100.00;65322.94;5083766;28;20497;-61
2023/03/11 01:24:06;;;;;;;8.00;4.60;;;;;;;-145.52;100.00;65322.94;5084245;28;20483;-61
2023/03/11 01:27:03;;;;;;;4.63;4.17;;;;;;;-145.52;100.00;65322.94;5083325;28;20488;-60
2023/03/11 01:29:57;;;;;;;5.33;4.70;;;;;;;-145.52;100.00;65322.94;5087930;28;20503;-61
2023/03/11 01:32:56;;;;;;;8.27;5.90;;;;;;;-145.52;100.00;65322.94;5114562;28;20490;-61
2023/03/11 01:35:42;;;;;;;7.70;5.50;;;;;;;-145.52;100.00;65322.94;5120881;28;20459;-61
2023/03/11 01:38:35;;;;;;;4.77;3.70;;;;;;;-145.52;100.00;65322.94;5121509;28;20921;-61
2023/03/11 01:41:26;;;;;;;5.23;4.33;;;;;;;-145.52;100.00;65322.94;5113320;28;20474;-61
2023/03/11 01:44:18;;;;;;;9.87;4.67;;;;;;;-145.52;100.00;65322.94;5124731;28;20537;-61
2023/03/11 01:47:29;;;;;;;6.97;5.23;;;;;;;-145.52;100.00;65322.94;5109586;28;20473;-62
2023/03/11 01:50:14;;;;;;;7.23;4.57;;;;;;;-145.52;100.00;65322.94;5097835;28;20539;-61
2023/03/11 01:53:02;;;;;;;8.93;5.20;;;;;;;-145.52;100.00;65322.94;5103676;28;20939;-61
2023/03/11 01:55:40;;;;;;;5.80;5.00;;;;;;;-145.52;100.00;65322.94;5103393;28;20496;-62
2023/03/11 01:58:23;;;;;;;6.20;5.60;;;;;;;-145.52;100.00;65322.94;5103794;28;20472;-61
2023/03/11 02:01:06;;;;;;;10.17;5.40;;;;;;;-145.52;100.00;65322.94;5111736;28;20489;-62
2023/03/11 02:03:54;;;;;;;6.10;4.80;;;;;;;-145.52;100.00;65322.94;5110103;28;20522;-61
2023/03/11 02:06:34;;;;;;;9.33;5.30;;;;;;;-145.52;100.00;65322.94;5120687;28;20837;-61
2023/03/11 02:09:01;;;;;;;6.70;5.60;;;;;;;-145.52;100.00;65322.94;5122211;28;20440;-61
2023/03/11 02:11:52;;;;;;;9.80;6.97;;;;;;;-145.52;100.00;65322.94;5106041;28;21039;-61
2023/03/11 02:14:36;;;;;;;11.90;6.77;;;;;;;-145.52;100.00;65322.94;5122243;28;20478;-61
2023/03/11 02:17:18;;;;;;;6.50;5.90;;;;;;;-145.52;100.00;65322.94;5104737;28;20493;-62
2023/03/11 02:20:18;;;;;;;10.30;6.13;;;;;;;-145.52;100.00;65322.94;5105609;28;20464;-61
2023/03/11 02:23:05;;;;;;;9.13;5.73;;;;;;;-145.52;100.00;65322.94;5106388;28;20450;-61
2023/03/11 02:25:35;;;;;;;7.53;5.87;;;;;;;-145.52;100.00;65322.94;5123050;28;20499;-61
2023/03/11 02:28:12;;;;;;;8.50;6.10;;;;;;;-145.52;100.00;65322.94;5123240;28;20816;-61
2023/03/11 02:31:03;;;;;;;8.77;6.27;;;;;;;-145.52;100.00;65322.94;5105870;28;20475;-61
2023/03/11 02:33:42;;;;;;;7.13;5.97;;;;;;;-145.52;100.00;65322.94;5097272;28;20443;-61
2023/03/11 02:36:42;;;;;;;9.90;5.73;;;;;;;-145.52;100.00;65322.94;5122348;28;20470;-61
2023/03/11 02:39:31;;;;;;;6.70;5.80;;;;;;;-145.52;100.00;65322.94;5123027;28;20457;-62
2023/03/11 02:42:17;;;;;;;7.27;6.00;;;;;;;-145.52;100.00;65322.94;5121448;28;20510;-61
2023/03/11 02:45:10;;;;;;;9.90;6.27;;;;;;;-145.52;100.00;65322.94;5112695;28;20554;-61
2023/03/11 02:48:05;;;;;;;7.37;4.90;;;;;;;-145.52;100.00;65322.94;5108039;28;20479;-61
2023/03/11 02:50:56;;;;;;;10.67;5.80;;;;;;;-145.52;100.00;65322.94;5098570;28;20496;-61
2023/03/11 02:53:37;;;;;;;7.03;6.33;;;;;;;-145.52;100.00;65322.94;5093228;28;20475;-60
2023/03/11 02:56:17;;;;;;;7.47;6.00;;;;;;;-145.52;100.00;65322.94;5103540;28;20497;-60
2023/03/11 02:59:01;;;;;;;10.40;5.10;;;;;;;-145.52;100.00;65322.94;5103729;28;20442;-61
2023/03/11 03:01:50;;;;;;;5.83;5.23;;;;;;;-145.52;100.00;65322.94;5120002;28;20540;-60
2023/03/11 03:04:30;;;;;;;8.17;4.77;;;;;;;-145.52;100.00;65322.94;5115661;28;20529;-60
2023/03/11 03:07:11;;;;;;;6.03;5.30;;;;;;;-145.52;100.00;65322.94;5118102;28;20490;-61
2023/03/11 03:09:52;;;;;;;9.53;5.90;;;;;;;-145.52;100.00;65322.94;5121485;28;20463;-61
2023/03/11 03:12:37;;;;;;;7.67;5.77;;;;;;;-145.52;100.00;65322.94;5107612;28;20497;-61
2023/03/11 03:15:20;;;;;;;6.63;5.17;;;;;;;-145.52;100.00;65322.94;5118029;28;20453;-61
2023/03/11 03:18:08;;;;;;;7.77;5.73;;;;;;;-145.52;100.00;65322.94;5102645;28;20471;-61
2023/03/11 03:20:34;;;;;;;7.13;5.37;;;;;;;-145.52;100.00;65322.94;5083249;28;20500;-61
2023/03/11 03:23:01;;;;;;;9.37;6.00;;;;;;;-145.52;100.00;65322.94;5081518;28;20460;-61
2023/03/11 03:25:28;;;;;;;7.80;5.67;;;;;;;3.96;100.00;97448.13;5081264;28;20465;-61
2023/03/11 03:27:57;;;;;;;10.90;5.33;;;;;;;-145.52;100.00;65322.94;5081880;28;20460;-61
2023/03/11 03:30:30;;;;;;;10.10;5.90;;;;;;;-145.52;100.00;65322.94;5100803;28;20467;-61
2023/03/11 03:33:13;;;;;;;10.97;6.10;;;;;;;-145.52;100.00;65322.94;5114894;28;20474;-61
2023/03/11 03:35:52;;;;;;;8.30;6.53;;;;;;;-145.52;100.00;65322.94;5101917;28;20505;-61
2023/03/11 03:38:42;;;;;;;14.30;6.70;;;;;;;-145.52;100.00;65322.94;5103309;28;20429;-62
2023/03/11 03:41:24;;;;;;;14.00;7.43;;;;;;;-145.52;100.00;65322.94;5121094;28;20479;-62
2023/03/11 03:44:05;;;;;;;12.13;6.00;;;;;;;-145.52;100.00;65322.94;5119648;28;20451;-62
2023/03/11 03:46:32;;;;;;;8.57;6.03;;;;;;;-145.52;100.00;65322.94;5100813;28;20528;-61
2023/03/11 03:49:09;;;;;;;8.63;6.07;;;;;;;-145.52;100.00;65322.94;5105953;28;20497;-61
2023/03/11 03:51:49;;;;;;;7.13;5.17;;;;;;;-145.52;100.00;65322.94;5120018;28;20544;-61
2023/03/11 03:54:29;;;;;;;5.83;4.67;;;;;;;-145.52;100.00;65322.94;5118936;28;20437;-61
2023/03/11 03:57:12;;;;;;;10.47;5.80;;;;;;;-145.52;100.00;65322.94;5080577;28;20476;-61
2023/03/11 03:59:49;;;;;;;5.33;4.83;;;;;;;-145.52;100.00;65322.94;5100779;28;20476;-61
2023/03/11 04:02:41;;;;;;;6.97;5.20;;;;;;;-145.52;100.00;65322.94;5107832;28;20549;-61
2023/03/11 04:05:10;;;;;;;7.60;5.73;;;;;;;-145.52;100.00;65322.94;5112841;28;20545;-62
2023/03/11 04:07:59;;;;;;;9.10;4.93;;;;;;;-145.52;100.00;65322.94;5081126;28;20458;-61
2023/03/11 04:10:48;;;;;;;8.57;5.10;;;;;;;-145.52;100.00;65322.94;5100206;28;20467;-61
2023/03/11 04:13:40;;;;;;;6.57;4.97;;;;;;;-145.52;100.00;65322.94;5113758;28;20435;-61
2023/03/11 04:16:26;;;;;;;5.67;4.63;;;;;;;-145.52;100.00;65322.94;5102807;28;20480;-61
2023/03/11 04:19:12;;;;;;;7.20;4.83;;;;;;;-145.52;100.00;65322.94;5109594;28;20432;-62
2023/03/11 04:22:00;;;;;;;8.30;4.50;;;;;;;-145.52;100.00;65322.94;5110290;28;20496;-61
2023/03/11 04:24:44;;;;;;;11.73;4.87;;;;;;;-145.52;100.00;65322.94;5100602;28;20744;-61
2023/03/11 04:27:32;;;;;;;10.77;4.80;;;;;;;-145.52;100.00;65322.94;5100253;28;20524;-61
2023/03/11 04:30:18;;;;;;;10.60;5.10;;;;;;;-145.52;100.00;65322.94;5100448;28;20884;-61
2023/03/11 04:33:10;;;;;;;9.67;4.30;;;;;;;-145.52;100.00;65322.94;5105711;28;20448;-61
2023/03/11 04:35:54;;;;;;;7.17;4.40;;;;;;;-145.52;100.00;65322.94;5108129;28;20474;-61
2023/03/11 04:38:45;;;;;;;5.30;4.60;;;;;;;-145.52;100.00;65322.94;5114094;28;20467;-61
2023/03/11 04:41:28;;;;;;;12.30;4.37;;;;;;;-145.52;100.00;65322.94;5115125;28;20486;-61
2023/03/11 04:44:12;;;;;;;5.90;4.50;;;;;;;-145.52;100.00;65322.94;5125270;28;20454;-61
2023/03/11 04:46:40;;;;;;;14.20;5.57;;;;;;;3.96;100.00;120342.69;5111590;28;20503;-61
2023/03/11 04:49:06;;;;;;;15.67;4.50;;;;;;;-145.52;100.00;65322.94;5105177;28;20496;-61
2023/03/11 04:51:33;;;;;;;7.47;5.00;;;;;;;-145.52;100.00;65322.94;5123094;27;20474;-61
2023/03/11 04:54:01;;;;;;;9.17;4.37;;;;;;;-145.52;100.00;65322.94;5132715;27;20481;-61
2023/03/11 04:56:28;;;;;;;7.93;4.27;;;;;;;-145.52;100.00;65322.94;5124875;28;20714;-61
2023/03/11 04:58:54;;;;;;;5.93;4.40;;;;;;;-145.52;100.00;65322.94;5134102;27;20882;-61
2023/03/11 05:01:21;;;;;;;8.90;4.23;;;;;;;-145.52;100.00;65322.94;5128313;27;20475;-61
2023/03/11 05:03:48;;;;;;;5.23;4.03;;;;;;;-145.52;100.00;65322.94;5124604;27;20861;-62
2023/03/11 05:06:14;;;;;;;9.27;5.13;;;;;;;-145.52;100.00;65322.94;5124277;27;20525;-61
2023/03/11 05:08:50;;;;;;;8.33;4.87;;;;;;;-145.52;100.00;65322.94;5125431;28;20538;-61
2023/03/11 05:11:29;;;;;;;8.47;4.70;;;;;;;-145.52;100.00;65322.94;5137161;27;20487;-61
2023/03/11 05:14:11;;;;;;;7.17;5.10;;;;;;;-145.52;100.00;65322.94;5143420;27;20889;-62
2023/03/11 05:16:45;;;;;;;6.47;4.50;;;;;;;-145.52;100.00;65322.94;5111496;28;20507;-61
2023/03/11 05:22:24;;;;;;;7.47;4.40;;;;;;;-145.52;100.00;65322.94;5082664;28;20528;-62
2023/03/11 05:25:05;;;;;;;8.33;3.70;;;;;;;-145.52;100.00;65322.94;5104953;28;20467;-62
2023/03/11 05:27:44;;;;;;;5.80;3.57;;;;;;;-145.52;100.00;65322.94;5111048;28;20502;-61
2023/03/11 05:30:29;;;;;;;8.13;4.70;;;;;;;-145.52;100.00;65322.94;5115571;28;20529;-61
2023/03/11 05:33:16;;;;;;;8.03;3.77;;;;;;;-145.52;100.00;65322.94;5105642;28;20474;-61
2023/03/11 05:36:03;;;;;;;8.33;4.10;;;;;;;-145.52;100.00;65322.94;5103107;28;20511;-62
2023/03/11 05:38:39;;;;;;;7.37;4.10;;;;;;;-145.52;100.00;65322.94;5103873;28;20451;-61
2023/03/11 05:41:13;;;;;;;4.40;4.00;;;;;;;-145.52;100.00;65322.94;5103124;28;20503;-61
2023/03/11 05:43:45;;;;;;;8.87;4.40;;;;;;;-145.52;100.00;65322.94;5084308;28;20443;-62
2023/03/11 05:46:24;;;;;;;4.27;3.57;;;;;;;-145.52;100.00;65322.94;5107560;28;20492;-63
2023/03/11 05:49:04;;;;;;;8.40;4.67;;;;;;;-145.52;100.00;65322.94;5114623;28;20458;-62
2023/03/11 05:51:41;;;;;;;7.40;4.33;;;;;;;-145.52;100.00;65322.94;5110755;28;20700;-61
2023/03/11 05:54:14;;;;;;;5.57;3.90;;;;;;;-145.52;100.00;65322.94;5104994;28;20439;-61
2023/03/11 05:56:58;;;;;;;7.53;5.47;;;;;;;-145.52;100.00;65322.94;5102252;28;20574;-62
2023/03/11 05:59:44;;;;;;;7.63;4.40;;;;;;;-145.52;100.00;65322.94;5106292;28;20467;-61
2023/03/11 06:02:28;;;;;;;9.43;5.37;;;;;;;-145.52;100.00;65322.94;5093932;28;20499;-62
2023/03/11 06:05:10;;;;;;;12.07;6.27;;;;;;;-145.52;100.00;65322.94;5121579;28;20983;-61
2023/03/11 06:07:52;;;;;;;6.00;4.40;;;;;;;-145.52;100.00;65322.94;5082673;28;20942;-61
2023/03/11 06:10:28;;;;;;;8.47;5.53;;;;;;;-145.52;100.00;65322.94;5081341;28;20976;-60
2023/03/11 06:13:09;;;;;;;12.73;5.97;;;;;;;-145.52;100.00;65322.94;5081543;28;20479;-61
2023/03/11 06:15:47;;;;;;;10.70;5.57;;;;;;;-145.52;100.00;65322.94;5082101;28;20550;-61
2023/03/11 06:18:25;;;;;;;10.63;5.70;;;;;;;-145.52;100.00;65322.94;5082603;28;20452;-61
2023/03/11 06:21:08;;;;;;;9.35;5.47;;;;;;;-145.52;100.00;65322.94;5080944;28;21040;-60
2023/03/11 06:23:56;;;;;;;12.20;5.87;;;;;;;-145.52;100.00;65322.94;5080433;28;20217;-60
2023/03/11 06:26:36;;;;;;;8.93;5.03;;;;;;;-145.52;100.00;65322.94;5081776;28;20485;-60
2023/03/11 06:29:23;;;;;;;9.13;5.80;;;;;;;-145.52;100.00;65322.94;5081582;28;20449;-60
2023/03/11 06:32:04;;;;;;;8.73;5.40;;;;;;;-145.52;100.00;65322.94;5081924;28;20476;-62
2023/03/11 06:34:50;;;;;;;13.30;5.10;;;;;;;-145.52;100.00;65322.94;5081995;28;20433;-62
2023/03/11 06:37:39;;;;;;;7.33;4.70;;;;;;;-145.52;100.00;65322.94;5073093;28;20512;-60
2023/03/11 06:40:24;;;;;;;12.33;5.27;;;;;;;-145.52;100.00;65322.94;5062868;28;20561;-60
2023/03/11 06:43:16;;;;;;;9.93;4.50;;;;;;;-145.52;100.00;65322.94;5094584;28;20510;-61
2023/03/11 06:45:55;;;;;;;8.70;4.40;;;;;;;-145.52;100.00;65322.94;5119462;28;20467;-60
2023/03/11 06:48:41;;;;;;;10.70;5.80;;;;;;;-145.52;100.00;65322.94;5122248;28;20438;-60
2023/03/11 06:51:36;;;;;;;8.97;5.43;;;;;;;-145.52;100.00;65322.94;5116347;28;20921;-60
2023/03/11 06:54:24;;;;;;;7.17;4.03;;;;;;;-145.52;100.00;65322.94;5102318;28;20473;-60
2023/03/11 06:57:09;;;;;;;7.00;4.27;;;;;;;-145.52;100.00;65322.94;5120991;28;21066;-61
2023/03/11 06:59:43;;;;;;;8.03;4.43;;;;;;;-145.52;100.00;65322.94;5121790;28;20991;-60
2023/03/11 07:02:36;;;;;;;8.10;4.80;;;;;;;-145.52;100.00;65322.94;5120312;28;20470;-60
2023/03/11 07:05:28;;;;;;;5.67;4.67;;;;;;;-145.52;100.00;65322.94;5118221;28;20424;-60
2023/03/11 07:08:15;;;;;;;9.87;4.10;;;;;;;-145.52;100.00;65322.94;5121548;28;20507;-62
2023/03/11 07:11:05;;;;;;;6.17;3.30;;;;;;;-145.52;100.00;65322.94;5121124;28;20513;-61
2023/03/11 07:13:45;;;;;;;10.20;4.50;;;;;;;-145.52;100.00;65322.94;5120910;28;20503;-60
2023/03/11 07:16:29;;;;;;;14.03;4.27;;;;;;;-145.52;100.00;65322.94;5116030;28;21244;-60
2023/03/11 07:19:11;;;;;;;5.40;3.50;;;;;;;-145.52;100.00;65322.94;5122046;27;20451;-60
2023/03/11 07:21:52;;;;;;;8.37;4.03;;;;;;;-145.52;100.00;65322.94;5135314;27;20559;-60
2023/03/11 07:24:36;;;;;;;7.63;4.30;;;;;;;-145.52;100.00;65322.94;5122669;28;20523;-60
2023/03/11 07:27:21;;;;;;;10.40;5.00;;;;;;;-145.52;100.00;65322.94;5119943;28;20546;-60
2023/03/11 07:30:03;;;;;;;6.73;4.77;;;;;;;-145.52;100.00;65322.94;5120336;28;20441;-60
2023/03/11 07:32:43;;;;;;;4.17;3.67;;;;;;;-145.52;100.00;65322.94;5109374;28;20546;-60
2023/03/11 07:35:29;;;;;;;9.90;3.90;;;;;;;-145.52;100.00;65322.94;5117710;28;20432;-60
2023/03/11 07:38:16;;;;;;;5.47;3.73;;;;;;;-145.52;100.00;65322.94;5122827;28;20430;-60
2023/03/11 07:41:00;;;;;;;7.60;3.87;;;;;;;-145.52;100.00;65322.94;5103308;28;20491;-60
2023/03/11 07:43:42;;;;;;;8.73;5.00;;;;;;;-145.52;100.00;65322.94;5114443;28;20514;-60
2023/03/11 07:46:29;;;;;;;14.23;4.90;;;;;;;-145.52;100.00;65322.94;5114675;28;20573;-60
2023/03/11 07:49:11;;;;;;;9.53;3.70;;;;;;;-145.52;100.00;65322.94;5114742;28;20841;-61
2023/03/11 07:51:51;;;;;;;5.73;3.53;;;;;;;-145.52;100.00;65322.94;5120772;28;20493;-64
2023/03/11 07:54:44;;;;;;;8.70;4.00;;;;;;;-145.52;100.00;65322.94;5109554;28;20451;-63
2023/03/11 07:57:24;;;;;;;3.57;3.03;;;;;;;-145.52;100.00;65322.94;5110027;28;20479;-64
2023/03/11 08:00:09;;;;;;;5.10;3.20;;;;;;;-145.52;100.00;65322.94;5116759;28;20445;-64
2023/03/11 08:02:48;;;;;;;4.97;3.00;;;;;;;-145.52;100.00;65322.94;5121069;28;20517;-64
2023/03/11 08:05:40;;;;;;;8.23;3.03;;;;;;;-145.52;100.00;65322.94;5120528;28;20458;-64
2023/03/11 08:08:16;;;;;;;9.80;2.57;;;;;;;-145.52;100.00;65322.94;5118264;28;20470;-64
2023/03/11 08:11:03;;;;;;;4.90;3.23;;;;;;;-145.52;100.00;65322.94;5119996;28;20495;-64
2023/03/11 08:13:41;;;;;;;6.23;2.93;;;;;;;-145.52;100.00;65322.94;5119770;28;20455;-64
2023/03/11 08:16:21;;;;;;;4.83;2.50;;;;;;;-145.52;100.00;65322.94;5121651;28;20478;-63
2023/03/11 08:19:11;;;;;;;3.87;1.93;;;;;;;-145.52;100.00;65322.94;5120308;28;20462;-64
2023/03/11 08:21:37;;;;;;;3.03;2.03;;;;;;;-145.52;100.00;65322.94;5109618;28;20491;-64
2023/03/11 08:24:18;;;;;;;9.80;4.43;;;;;;;-145.52;100.00;65322.94;5113053;28;20466;-64
2023/03/11 08:26:56;;;;;;;8.93;3.93;;;;;;;-145.52;100.00;65322.94;5119829;28;20498;-64
2023/03/11 08:29:40;;;;;;;5.90;3.07;;;;;;;-145.52;100.00;65322.94;5119038;28;20480;-64
2023/03/11 08:32:17;;;;;;;7.57;1.83;;;;;;;-145.52;100.00;65322.94;5119482;28;20990;-64
2023/03/11 08:34:57;;;;;;;5.20;3.97;;;;;;;-145.52;100.00;65322.94;5120543;28;20435;-64
2023/03/11 08:37:42;;;;;;;11.67;6.90;;;;;;;-145.52;100.00;65322.94;5119288;28;20498;-64
2023/03/11 08:40:28;;;;;;;5.07;2.10;;;;;;;-145.52;100.00;65322.94;5117839;28;20516;-64
2023/03/11 08:42:56;;;;;;;4.00;2.53;;;;;;;-145.52;100.00;65322.94;5121312;28;20501;-64
2023/03/11 08:45:39;;;;;;;4.27;2.00;;;;;;;-145.52;100.00;65322.94;5125201;27;20439;-64
2023/03/11 08:48:20;;;;;;;2.93;1.93;;;;;;;-145.52;100.00;65322.94;5133483;27;20467;-64
2023/03/11 08:50:57;;;;;;;5.43;2.90;;;;;;;-145.52;100.00;65322.94;5136639;27;20486;-63
2023/03/11 08:53:39;;;;;;;4.27;2.20;;;;;;;-145.52;100.00;65322.94;5119585;28;20449;-63
2023/03/11 08:56:19;;;;;;;5.70;2.60;;;;;;;-145.52;100.00;65322.94;5119675;28;20819;-77
2023/03/11 08:59:02;;;;;;;5.30;3.30;;;;;;;-145.52;100.00;65322.94;5118531;28;20454;-66
2023/03/11 09:01:34;;;;;;;7.87;3.13;;;;;;;-145.52;100.00;65322.94;5117427;28;20484;-64
2023/03/11 09:51:22;;;;;;;4.40;2.77;;;;;;;;;;5107029;27;20636;-64
2023/03/11 09:53:51;;;;;;;6.70;1.77;;;;;;;;;;5096222;28;20485;-64
2023/03/11 10:01:53;;;;;;;6.67;2.67;;;;;;;;;;5145612;27;20652;-64
2023/03/11 10:04:21;;;;;;;6.90;2.50;;;;;;;;;;5130836;27;20489;-64
2023/03/11 10:06:48;;;;;;;6.20;2.57;;;;;;;;;;5138421;27;20815;-64
2023/03/11 10:09:24;;;;;;;8.37;3.40;;;;;;;;;;5137715;28;20457;-64
2023/03/11 10:11:57;;;;;;;6.80;2.53;;;;;;;;;;5122614;27;20477;-64
2023/03/11 10:14:34;;;;;;;6.10;2.40;;;;;;;;;;5121573;28;20481;-63
2023/03/11 10:17:06;;;;;;;6.70;2.33;;;;;;;;;;5127551;27;20531;-64
2023/03/11 10:19:38;;;;;;;7.47;2.90;;;;;;;;;;5116938;28;20438;-64
2023/03/11 10:22:10;;;;;;;6.60;2.70;;;;;;;;;;5118229;28;20481;-63
2023/03/11 10:24:42;;;;;;;7.00;2.63;;;;;;;;;;5117159;28;20481;-63
2023/03/11 10:27:11;;;;;;;8.57;3.60;;;;;;;;;;5117390;27;20516;-64
2023/03/11 10:29:42;;;;;;;6.30;2.50;;;;;;;;;;5128095;28;20468;-64
2023/03/11 10:32:14;;;;;;;9.00;3.00;;;;;;;;;;5137390;27;20504;-64
2023/03/11 10:34:43;;;;;;;4.83;2.40;;;;;;;;;;5115493;28;20486;-64
2023/03/11 10:37:13;;;;;;;6.50;2.40;;;;;;;;;;5129980;27;20930;-64
2023/03/11 10:39:39;;;;;;;17.53;3.77;;;;;;;;;;5117977;28;20482;-64
2023/03/11 10:42:10;;;;;;;8.03;2.73;;;;;;;;;;5103926;28;20510;-65
2023/03/11 10:44:38;;;;;;;10.77;2.70;;;;;;;;;;5132453;28;20446;-65
2023/03/11 10:47:04;;;;;;;9.53;3.10;;;;;;;;;;5135626;27;20481;-64
2023/03/11 10:49:33;;;;;;;5.93;2.23;;;;;;;;;;5117194;27;20458;-64
2023/03/11 10:51:59;;;;;;;10.10;3.17;;;;;;;;;;5135276;27;21009;-64
2023/03/11 10:54:27;;;;;;;9.40;3.00;;;;;;;;;;5119956;28;20479;-64
2023/03/11 10:56:55;;;;;;;12.13;3.17;;;;;;;;;;5137565;27;20532;-64
2023/03/11 10:59:23;;;;;;;13.40;3.27;;;;;;;;;;5136919;28;20445;-64
2023/03/11 11:01:54;;;;;;;10.40;3.60;;;;;;;;;;5131252;27;21103;-64
2023/03/11 11:04:26;;;;;;;17.93;3.93;;;;;;;;;;5107693;28;20459;-64
2023/03/11 11:06:54;;;;;;;7.57;2.33;;;;;;;;;;5131769;27;20473;-64
2023/03/11 11:09:21;;;;;;;4.47;2.30;;;;;;;;;;5137031;28;20582;-63
2023/03/11 11:12:00;;;;;;;6.23;2.60;;;;;;;;;;5112147;27;20486;-64
2023/03/11 11:14:41;;;;;;;7.40;2.27;;;;;;;;;;5101741;28;20493;-64
2023/03/11 11:17:13;;;;;;;13.87;3.80;;;;;;;;;;5092901;28;20480;-63
2023/03/11 11:19:43;;;;;;;8.60;3.23;;;;;;;;;;5109851;28;20443;-63
2023/03/11 11:22:14;;;;;;;7.63;2.60;;;;;;;;;;5122010;27;20723;-63
2023/03/11 11:24:43;;;;;;;5.40;2.27;;;;;;;;;;5094442;28;20521;-64
2023/03/11 11:27:15;;;;;;;8.53;2.27;;;;;;;;;;5117263;27;20816;-63
2023/03/11 11:29:42;;;;;;;8.73;3.60;;;;;;;;;;5118872;28;20442;-64
2023/03/11 11:32:29;;;;;;;6.90;2.60;;;;;;;;;;5114356;27;20513;-63
2023/03/11 11:35:00;;;;;;;6.50;2.33;;;;;;;;;;5097887;28;20477;-64
2023/03/11 11:37:30;;;;;;;5.50;1.67;;;;;;;;;;5117570;28;20525;-64
2023/03/11 11:39:59;;;;;;;3.70;1.83;;;;;;;;;;5113733;28;20929;-64
2023/03/11 11:42:28;;;;;;;7.20;1.87;;;;;;;;;;5101786;28;20483;-64
2023/03/11 11:44:57;;;;;;;6.30;1.80;;;;;;;;;;5122080;28;20478;-64
2023/03/11 11:47:24;;;;;;;10.23;2.10;;;;;;;;;;5122940;27;20506;-64
2023/03/11 11:49:54;;;;;;;7.90;2.70;;;;;;;;;;5106389;28;20534;-64
2023/03/11 11:52:24;;;;;;;7.47;2.43;;;;;;;;;;5112562;27;20488;-64
2023/03/11 11:54:53;;;;;;;3.70;1.70;;;;;;;;;;5108987;28;20508;-64
2023/03/11 11:57:20;;;;;;;5.77;2.03;;;;;;;;;;5105824;28;20510;-64
2023/03/11 11:59:47;;;;;;;4.77;2.10;;;;;;;;;;5122415;28;20589;-64
2023/03/11 12:02:21;;;;;;;4.80;1.43;;;;;;;;;;5122165;27;20473;-64
2023/03/11 12:04:50;;;;;;;7.00;2.50;;;;;;;;;;5122955;28;20497;-64
2023/03/11 12:07:22;;;;;;;4.80;2.07;;;;;;;;;;5120641;27;20540;-64
2023/03/11 12:09:52;;;;;;;8.50;2.10;;;;;;;;;;5123129;28;20474;-64
2023/03/11 12:12:23;;;;;;;2.57;1.73;;;;;;;;;;5121887;27;20521;-64
2023/03/11 12:14:52;;;;;;;4.53;2.00;;;;;;;;;;5122138;28;20449;-64
2023/03/11 12:17:22;;;;;;;4.10;1.60;;;;;;;;;;5122227;27;20525;-64
2023/03/11 12:19:52;;;;;;;3.43;1.63;;;;;;;;;;5122520;28;20810;-64
2023/03/11 12:22:26;;;;;;;8.53;2.10;;;;;;;;;;5120577;27;20502;-64
2023/03/11 12:25:01;;;;;;;4.53;1.83;;;;;;;;;;5121996;28;20455;-64
2023/03/11 12:27:30;;;;;;;3.90;1.70;;;;;;;;;;5122046;27;20503;-64
2023/03/11 12:29:59;;;;;;;5.10;1.80;;;;;;;;;;5114096;28;20432;-64
2023/03/11 12:32:30;;;;;;;5.83;1.60;;;;;;;;;;5111510;28;20888;-64
2023/03/11 12:35:00;;;;;;;4.50;2.20;;;;;;;;;;5099601;28;20467;-63
2023/03/11 12:37:27;;;;;;;8.97;1.97;;;;;;;;;;5098171;28;20514;-63
2023/03/11 12:39:53;;;;;;;7.47;2.10;;;;;;;;;;5119959;28;20447;-63
2023/03/11 12:42:20;;;;;;;3.40;1.70;;;;;;;;;;5120976;27;20670;-63
2023/03/11 12:44:49;;;;;;;7.53;1.73;;;;;;;;;;5113608;28;20444;-61
2023/03/11 12:47:24;;;;;;;4.30;1.80;;;;;;;;;;5102382;28;21004;-61
2023/03/11 12:49:53;;;;;;;4.47;1.60;;;;;;;;;;5112334;28;20480;-61
2023/03/11 12:52:29;;;;;;;5.27;2.00;;;;;;;;;;5120702;27;20478;-61
2023/03/11 12:55:28;;;;;;;2.80;1.80;;;;;;;;;;5121894;28;20453;-61
2023/03/11 12:57:58;;;;;;;5.00;1.90;;;;;;;;;;5042621;28;20474;-61
2023/03/11 13:00:39;;;;;;;3.47;2.00;;;;;;;;;;5040623;28;20485;-61
2023/03/11 13:03:28;;;;;;;3.30;1.83;;;;;;;;;;5057155;28;20495;-61
2023/03/11 13:05:58;;;;;;;3.03;1.27;;;;;;;;;;5044209;28;20478;-61
2023/03/11 13:08:25;;;;;;;2.67;1.97;;;;;;;;;;5050605;28;20532;-61
2023/03/11 13:10:52;;;;;;;3.60;2.23;;;;;;;;;;5058166;28;20488;-60
2023/03/11 13:13:35;;;;;;;4.30;2.17;;;;;;;;;;5046160;28;20480;-61
2023/03/11 13:16:16;;;;;;;6.93;2.27;;;;;;;;;;5037315;28;20495;-61
2023/03/11 13:18:44;;;;;;;3.70;1.40;;;;;;;;;;5037415;28;20612;-61
2023/03/11 13:21:25;;;;;;;6.13;1.80;;;;;;;;;;5036652;28;20501;-60
2023/03/11 13:23:52;;;;;;;3.87;1.80;;;;;;;;;;5046440;28;20457;-61
2023/03/11 13:26:30;;;;;;;3.73;1.80;;;;;;;;;;5056931;28;20477;-61
2023/03/11 13:29:15;;;;;;;7.87;1.87;;;;;;;;;;5080149;28;20487;-61
2023/03/11 13:31:44;;;;;;;4.30;1.30;;;;;;;;;;5101225;28;20495;-61
2023/03/11 13:34:15;;;;;;;2.20;1.53;;;;;;;;;;5115399;28;20451;-61
2023/03/11 13:37:08;;;;;;;2.60;1.30;;;;;;;;;;5107427;28;21031;-61
2023/03/11 13:39:41;;;;;;;3.33;1.50;;;;;;;;;;5104053;28;20532;-61
2023/03/11 13:42:19;;;;;;;2.30;1.30;;;;;;;;;;5104453;27;21063;-60
2023/03/11 13:44:47;;;;;;;3.07;1.90;;;;;;;;;;5112833;28;20477;-61
2023/03/11 13:47:14;;;;;;;2.40;1.60;;;;;;;;;;5114130;27;20490;-60
2023/03/11 13:49:43;;;;;;;5.50;2.10;;;;;;;;;;5115539;28;20943;-63
2023/03/11 13:52:10;;;;;;;9.20;2.63;;;;;;;;;;5119223;27;20519;-64
2023/03/11 13:54:39;;;;;;;5.70;1.83;;;;;;;;;;5116017;28;20486;-63
2023/03/11 13:57:05;;;;;;;5.03;1.77;;;;;;;;;;5096819;28;20510;-63
2023/03/11 13:59:33;;;;;;;5.53;2.20;;;;;;;;;;5089578;28;20467;-59